createdAt,value
2022-08-07T00:01:43.039Z,14.90
2022-08-07T00:03:56.661Z,14.90
2022-08-07T00:06:33.074Z,14.80
2022-08-07T00:09:17.226Z,14.80
2022-08-07T00:11:56.152Z,14.80
2022-08-07T00:14:31.017Z,14.70
2022-08-07T00:17:02.551Z,14.70
2022-08-07T00:20:00.379Z,14.70
2022-08-07T00:22:24.884Z,14.70
2022-08-07T00:25:05.117Z,14.60
2022-08-07T00:27:51.946Z,14.60
2022-08-07T00:30:28.091Z,14.60
2022-08-07T00:32:58.812Z,14.50
2022-08-07T00:35:27.339Z,14.50
2022-08-07T00:37:58.632Z,14.50
2022-08-07T00:40:36.430Z,14.40
2022-08-07T00:43:10.749Z,14.40
2022-08-07T00:45:59.670Z,14.40
2022-08-07T00:48:32.090Z,14.30
2022-08-07T00:51:02.794Z,14.30
2022-08-07T00:53:38.404Z,14.30
2022-08-07T00:56:13.885Z,14.30
2022-08-07T00:58:46.697Z,14.20
2022-08-07T01:01:16.299Z,14.20
2022-08-07T01:03:55.831Z,14.20
2022-08-07T01:06:25.993Z,14.20
2022-08-07T01:08:55.713Z,14.20
2022-08-07T01:12:23.537Z,14.10
2022-08-07T01:14:15.584Z,14.10
2022-08-07T01:16:47.395Z,14.00
2022-08-07T01:19:20.672Z,14.00
2022-08-07T01:21:55.665Z,14.00
2022-08-07T01:24:31.494Z,14.00
2022-08-07T01:27:02.376Z,14.00
2022-08-07T01:29:34.244Z,13.90
2022-08-07T01:32:12.298Z,13.90
2022-08-07T01:34:47.396Z,13.90
2022-08-07T01:37:20.127Z,13.80
2022-08-07T01:39:50.677Z,13.80
2022-08-07T01:42:39.905Z,13.80
2022-08-07T01:45:17.823Z,13.80
2022-08-07T01:48:20.824Z,13.80
2022-08-07T01:50:43.265Z,13.70
2022-08-07T01:53:21.125Z,13.70
2022-08-07T01:56:10.285Z,13.70
2022-08-07T01:58:49.079Z,13.60
2022-08-07T02:01:59.267Z,13.60
2022-08-07T02:04:14.905Z,13.60
2022-08-07T02:06:49.102Z,13.60
2022-08-07T02:09:33.887Z,13.50
2022-08-07T02:12:18.093Z,13.50
2022-08-07T02:14:58.182Z,13.50
2022-08-07T02:17:35.330Z,13.50
2022-08-07T02:20:17.090Z,13.40
2022-08-07T02:22:47.199Z,13.40
2022-08-07T02:26:10.205Z,13.40
2022-08-07T02:28:25.267Z,13.40
2022-08-07T02:30:56.973Z,13.40
2022-08-07T02:33:33.025Z,13.30
2022-08-07T02:36:28.599Z,13.30
2022-08-07T02:39:16.615Z,13.30
2022-08-07T02:41:55.195Z,13.20
2022-08-07T02:44:34.331Z,13.20
2022-08-07T02:47:06.734Z,13.20
2022-08-07T02:49:57.930Z,13.20
2022-08-07T02:52:32.355Z,13.10
2022-08-07T02:55:15.398Z,13.10
2022-08-07T02:58:03.884Z,13.10
2022-08-07T03:00:36.054Z,13.10
2022-08-07T03:03:13.682Z,13.10
2022-08-07T03:05:51.999Z,13.00
2022-08-07T03:08:26.865Z,13.00
2022-08-07T03:11:00.172Z,13.00
2022-08-07T03:13:39.264Z,13.00
2022-08-07T03:16:23.006Z,13.00
2022-08-07T03:18:57.103Z,12.90
2022-08-07T03:21:26.301Z,12.90
2022-08-07T03:24:20.625Z,12.90
2022-08-07T03:26:51.480Z,12.90
2022-08-07T03:29:30.597Z,12.80
2022-08-07T03:31:59.863Z,12.80
2022-08-07T03:34:29.845Z,12.80
2022-08-07T03:37:12.245Z,12.80
2022-08-07T03:39:59.975Z,12.80
2022-08-07T03:42:35.994Z,12.70
2022-08-07T03:45:09.312Z,12.70
2022-08-07T03:47:47.896Z,12.60
2022-08-07T03:50:23.399Z,12.60
2022-08-07T03:52:54.544Z,12.60
2022-08-07T03:55:23.747Z,12.60
2022-08-07T03:59:04.641Z,12.60
2022-08-07T04:01:04.689Z,12.50
2022-08-07T04:03:49.506Z,12.60
2022-08-07T04:06:37.517Z,12.50
2022-08-07T04:09:15.149Z,12.50
2022-08-07T04:12:23.724Z,12.50
2022-08-07T04:14:43.757Z,12.50
2022-08-07T04:17:21.058Z,12.50
2022-08-07T04:19:54.904Z,12.40
2022-08-07T04:22:29.077Z,12.50
2022-08-07T04:25:02.380Z,12.50
2022-08-07T04:27:35.718Z,12.40
2022-08-07T04:30:21.290Z,12.40
2022-08-07T04:33:09.588Z,12.40
2022-08-07T04:35:41.754Z,12.40
2022-08-07T04:38:14.823Z,12.40
2022-08-07T04:40:51.867Z,12.40
2022-08-07T04:44:13.208Z,12.30
2022-08-07T04:46:34.649Z,12.30
2022-08-07T04:49:24.381Z,12.30
2022-08-07T04:52:08.190Z,12.40
2022-08-07T04:55:02.247Z,12.40
2022-08-07T04:58:12.050Z,12.40
2022-08-07T05:00:48.872Z,12.40
2022-08-07T05:03:59.993Z,12.40
2022-08-07T05:06:19.738Z,12.40
2022-08-07T05:09:00.535Z,12.40
2022-08-07T05:11:57.057Z,12.50
2022-08-07T05:14:53.108Z,12.50
2022-08-07T05:17:51.989Z,12.50
2022-08-07T05:20:12.851Z,12.60
2022-08-07T05:22:46.355Z,12.60
2022-08-07T05:25:25.925Z,12.60
2022-08-07T05:28:21.057Z,12.60
2022-08-07T05:30:55.733Z,12.70
2022-08-07T05:33:28.923Z,12.70
2022-08-07T05:35:59.455Z,12.70
2022-08-07T05:39:00.332Z,12.80
2022-08-07T05:41:21.702Z,12.80
2022-08-07T05:44:12.489Z,12.90
2022-08-07T05:46:47.101Z,12.90
2022-08-07T05:49:24.458Z,13.00
2022-08-07T05:51:55.885Z,13.00
2022-08-07T05:54:44.156Z,13.10
2022-08-07T05:57:17.982Z,13.20
2022-08-07T05:59:56.027Z,13.30
2022-08-07T06:02:34.046Z,13.50
2022-08-07T06:05:10.908Z,13.80
2022-08-07T06:08:12.984Z,14.00
2022-08-07T06:10:31.051Z,14.30
2022-08-07T06:13:01.174Z,14.60
2022-08-07T06:15:38.922Z,14.90
2022-08-07T06:18:14.095Z,15.20
2022-08-07T06:20:50.755Z,15.50
2022-08-07T06:24:38.269Z,15.80
2022-08-07T06:26:27.418Z,16.20
2022-08-07T06:29:01.307Z,16.50
2022-08-07T06:31:46.889Z,16.80
2022-08-07T06:34:24.402Z,17.10
2022-08-07T06:36:58.311Z,17.40
2022-08-07T06:40:13.471Z,17.70
2022-08-07T06:42:34.939Z,17.90
2022-08-07T06:45:18.572Z,18.20
2022-08-07T06:47:58.798Z,18.50
2022-08-07T06:50:47.862Z,18.70
2022-08-07T06:55:27.974Z,19.00
2022-08-07T06:56:15.383Z,19.20
2022-08-07T07:00:12.819Z,19.40
2022-08-07T07:01:48.769Z,19.60
2022-08-07T07:04:28.279Z,19.80
2022-08-07T07:07:10.465Z,19.90
2022-08-07T07:09:48.179Z,20.20
2022-08-07T07:12:31.332Z,20.30
2022-08-07T07:15:16.185Z,20.60
2022-08-07T07:17:59.656Z,20.80
2022-08-07T07:20:34.738Z,20.90
2022-08-07T07:24:08.377Z,21.10
2022-08-07T07:26:34.581Z,21.10
2022-08-07T07:29:57.050Z,21.20
2022-08-07T07:31:44.648Z,21.40
2022-08-07T07:34:17.981Z,21.40
2022-08-07T07:36:52.730Z,21.60
2022-08-07T07:39:25.409Z,21.70
2022-08-07T07:42:13.125Z,21.80
2022-08-07T07:44:49.614Z,21.80
2022-08-07T07:47:23.771Z,21.90
2022-08-07T07:50:36.671Z,21.90
2022-08-07T07:52:47.854Z,22.10
2022-08-07T07:55:19.003Z,22.20
2022-08-07T07:57:51.742Z,22.30
2022-08-07T08:00:29.439Z,22.40
2022-08-07T08:03:08.109Z,22.50
2022-08-07T08:05:50.455Z,22.60
2022-08-07T08:08:34.763Z,22.70
2022-08-07T08:11:07.971Z,22.80
2022-08-07T08:13:54.831Z,22.90
2022-08-07T08:16:31.132Z,23.00
2022-08-07T08:19:18.230Z,23.00
2022-08-07T08:22:10.634Z,23.00
2022-08-07T08:25:04.855Z,23.10
2022-08-07T08:27:56.262Z,23.10
2022-08-07T08:30:32.247Z,23.10
2022-08-07T08:33:15.089Z,23.00
2022-08-07T08:35:49.904Z,23.00
2022-08-07T08:38:25.874Z,23.00
2022-08-07T08:41:03.551Z,23.10
2022-08-07T08:43:42.902Z,23.10
2022-08-07T08:46:20.323Z,23.20
2022-08-07T08:48:58.443Z,23.20
2022-08-07T08:52:12.395Z,23.30
2022-08-07T08:54:29.473Z,23.30
2022-08-07T08:57:02.230Z,23.40
2022-08-07T08:59:47.879Z,23.50
2022-08-07T09:02:36.655Z,23.50
2022-08-07T09:05:31.997Z,23.50
2022-08-07T09:08:12.254Z,23.50
2022-08-07T09:10:49.665Z,23.50
2022-08-07T09:13:37.705Z,23.50
2022-08-07T09:16:21.840Z,23.40
2022-08-07T09:19:44.591Z,23.50
2022-08-07T09:24:27.458Z,23.50
2022-08-07T09:25:17.294Z,23.60
2022-08-07T09:28:01.108Z,23.70
2022-08-07T09:30:46.195Z,23.80
2022-08-07T09:33:53.037Z,23.80
2022-08-07T09:36:22.080Z,23.80
2022-08-07T09:39:06.263Z,23.90
2022-08-07T09:42:02.936Z,23.90
2022-08-07T09:47:20.037Z,24.00
2022-08-07T09:48:00.456Z,24.10
2022-08-07T09:50:37.521Z,24.10
2022-08-07T09:53:12.494Z,24.20
2022-08-07T09:56:03.122Z,24.20
2022-08-07T09:59:02.354Z,24.30
2022-08-07T10:01:56.252Z,24.30
2022-08-07T10:04:46.003Z,24.40
2022-08-07T10:07:52.981Z,24.40
2022-08-07T10:11:00.331Z,24.40
2022-08-07T10:14:00.686Z,24.40
2022-08-07T10:16:49.600Z,24.40
2022-08-07T10:19:43.433Z,24.40
2022-08-07T10:22:36.881Z,24.30
2022-08-07T10:25:15.514Z,24.10
2022-08-07T10:28:12.745Z,24.00
2022-08-07T10:30:59.240Z,23.90
2022-08-07T10:34:05.741Z,24.00
2022-08-07T10:36:58.739Z,24.00
2022-08-07T10:39:42.029Z,24.20
2022-08-07T10:42:36.605Z,24.30
2022-08-07T10:45:19.356Z,24.40
2022-08-07T10:48:03.777Z,24.50
2022-08-07T10:50:42.488Z,24.60
2022-08-07T10:53:26.515Z,24.60
2022-08-07T10:56:03.695Z,24.50
2022-08-07T10:58:47.834Z,24.50
2022-08-07T11:01:50.956Z,24.50
2022-08-07T11:04:38.857Z,24.40
2022-08-07T11:07:57.012Z,24.30
2022-08-07T11:10:27.360Z,24.30
2022-08-07T11:13:03.574Z,24.20
2022-08-07T11:15:36.958Z,24.20
2022-08-07T11:18:12.569Z,24.30
2022-08-07T11:20:49.893Z,24.20
2022-08-07T11:23:30.408Z,24.20
2022-08-07T11:26:06.668Z,24.10
2022-08-07T11:28:40.134Z,24.00
2022-08-07T11:31:21.139Z,24.00
2022-08-07T11:34:01.171Z,24.10
2022-08-07T11:36:40.681Z,24.10
2022-08-07T11:39:24.972Z,24.10
2022-08-07T11:42:29.571Z,24.10
2022-08-07T11:45:12.258Z,24.20
2022-08-07T11:47:59.186Z,24.30
2022-08-07T11:50:44.557Z,24.30
2022-08-07T11:53:38.098Z,24.20
2022-08-07T11:56:33.924Z,24.20
2022-08-07T12:00:11.708Z,24.20
2022-08-07T12:02:30.296Z,24.20
2022-08-07T12:05:15.198Z,24.20
2022-08-07T12:08:03.720Z,24.20
2022-08-07T12:10:41.974Z,24.20
2022-08-07T12:13:35.439Z,24.20
2022-08-07T12:16:10.592Z,24.20
2022-08-07T12:18:48.001Z,24.10
2022-08-07T12:22:37.737Z,24.00
2022-08-07T12:24:38.543Z,24.00
2022-08-07T12:27:15.868Z,24.00
2022-08-07T12:29:51.667Z,24.00
2022-08-07T12:32:28.948Z,24.00
2022-08-07T12:35:01.113Z,24.00
2022-08-07T12:38:10.354Z,24.00
2022-08-07T12:40:46.490Z,24.10
2022-08-07T12:44:01.966Z,24.20
2022-08-07T12:46:15.815Z,24.30
2022-08-07T12:49:09.844Z,24.40
2022-08-07T12:52:13.870Z,24.40
2022-08-07T12:54:54.689Z,24.50
2022-08-07T12:57:59.478Z,24.60
2022-08-07T13:00:30.949Z,24.70
2022-08-07T13:03:22.969Z,24.70
2022-08-07T13:06:17.015Z,24.80
2022-08-07T13:09:00.980Z,24.90
2022-08-07T13:12:02.213Z,24.90
2022-08-07T13:14:51.190Z,24.90
2022-08-07T13:17:39.730Z,24.90
2022-08-07T13:20:21.790Z,24.80
2022-08-07T13:23:09.685Z,24.80
2022-08-07T13:25:50.717Z,24.80
2022-08-07T13:28:29.825Z,24.80
2022-08-07T13:31:06.530Z,24.70
2022-08-07T13:34:31.413Z,24.70
2022-08-07T13:36:44.521Z,24.60
2022-08-07T13:40:32.686Z,24.50
2022-08-07T13:42:24.930Z,24.50
2022-08-07T13:44:55.351Z,24.40
2022-08-07T13:48:06.345Z,24.30
2022-08-07T13:51:00.379Z,24.30
2022-08-07T13:53:27.783Z,24.20
2022-08-07T13:56:35.683Z,24.20
2022-08-07T13:59:13.460Z,24.20
2022-08-07T14:01:51.088Z,24.20
2022-08-07T14:04:29.728Z,24.20
2022-08-07T14:07:09.782Z,24.20
2022-08-07T14:10:12.399Z,24.20
2022-08-07T14:12:41.998Z,24.20
2022-08-07T14:15:27.148Z,24.30
2022-08-07T14:18:23.970Z,24.30
2022-08-07T14:21:00.373Z,24.40
2022-08-07T14:24:00.425Z,24.40
2022-08-07T14:26:33.553Z,24.30
2022-08-07T14:30:07.939Z,24.30
2022-08-07T14:32:02.274Z,24.30
2022-08-07T14:34:33.824Z,24.30
2022-08-07T14:37:05.229Z,24.30
2022-08-07T14:40:15.608Z,24.20
2022-08-07T14:43:54.982Z,24.20
2022-08-07T14:45:46.704Z,24.10
2022-08-07T14:48:20.189Z,24.00
2022-08-07T14:50:51.268Z,24.00
2022-08-07T14:54:08.917Z,24.00
2022-08-07T14:56:13.939Z,24.00
2022-08-07T14:58:54.986Z,24.10
2022-08-07T15:01:42.820Z,24.10
2022-08-07T15:04:22.626Z,24.10
2022-08-07T15:06:54.039Z,24.10
2022-08-07T15:13:06.179Z,24.20
2022-08-07T15:15:09.296Z,24.20
2022-08-07T15:20:55.946Z,24.20
2022-08-07T15:26:20.866Z,24.30
2022-08-07T15:30:02.184Z,24.30
2022-08-07T15:32:01.983Z,24.40
2022-08-07T15:34:36.460Z,24.40
2022-08-07T15:39:58.906Z,24.50
2022-08-07T15:42:51.926Z,24.50
2022-08-07T15:45:58.126Z,24.50
2022-08-07T15:48:25.956Z,24.50
2022-08-07T15:51:09.155Z,24.50
2022-08-07T15:53:58.227Z,24.50
2022-08-07T15:56:34.153Z,24.50
2022-08-07T15:59:05.701Z,24.50
2022-08-07T16:01:39.426Z,24.60
2022-08-07T16:04:15.262Z,24.60
2022-08-07T16:06:50.638Z,24.60
2022-08-07T16:09:24.368Z,24.60
2022-08-07T16:12:25.101Z,24.60
2022-08-07T16:15:42.148Z,24.60
2022-08-07T16:18:10.736Z,24.70
2022-08-07T16:22:01.456Z,24.70
2022-08-07T16:23:58.543Z,24.70
2022-08-07T16:26:59.162Z,24.70
2022-08-07T16:30:10.125Z,24.80
2022-08-07T16:34:03.256Z,24.80
2022-08-07T16:36:31.237Z,24.70
2022-08-07T16:39:33.785Z,24.80
2022-08-07T16:42:34.739Z,24.90
2022-08-07T16:46:10.994Z,24.90
2022-08-07T16:49:04.318Z,25.00
2022-08-07T16:51:54.250Z,25.00
2022-08-07T16:54:55.238Z,25.10
2022-08-07T16:58:02.553Z,25.20
2022-08-07T17:00:29.662Z,25.20
2022-08-07T17:03:19.669Z,25.30
2022-08-07T17:06:31.166Z,25.40
2022-08-07T17:09:15.832Z,25.40
2022-08-07T17:12:36.663Z,25.40
2022-08-07T17:15:04.633Z,25.50
2022-08-07T17:17:46.900Z,25.60
2022-08-07T17:20:29.663Z,25.80
2022-08-07T17:23:08.507Z,26.10
2022-08-07T17:25:52.265Z,26.40
2022-08-07T17:28:31.027Z,26.90
2022-08-07T17:31:16.020Z,27.40
2022-08-07T17:34:17.890Z,27.90
2022-08-07T17:36:58.065Z,28.60
2022-08-07T17:39:58.514Z,29.20
2022-08-07T17:42:59.231Z,30.10
2022-08-07T17:45:35.186Z,30.80
2022-08-07T17:48:12.902Z,31.00
2022-08-07T17:50:54.249Z,30.70
2022-08-07T17:54:02.136Z,30.10
2022-08-07T17:56:28.807Z,29.70
2022-08-07T17:59:05.572Z,30.10
2022-08-07T18:01:45.613Z,30.10
2022-08-07T18:04:31.062Z,30.90
2022-08-07T18:07:22.904Z,31.70
2022-08-07T18:10:06.907Z,31.90
2022-08-07T18:12:52.529Z,30.80
2022-08-07T18:15:33.068Z,29.60
2022-08-07T18:18:47.125Z,28.60
2022-08-07T18:21:30.664Z,27.90
2022-08-07T18:24:33.014Z,27.20
2022-08-07T18:27:17.374Z,26.70
2022-08-07T18:30:30.771Z,26.30
2022-08-07T18:33:26.963Z,25.90
2022-08-07T18:36:08.791Z,25.50
2022-08-07T18:38:56.528Z,25.20
2022-08-07T18:41:46.314Z,25.00
2022-08-07T18:44:30.351Z,24.80
2022-08-07T18:47:06.210Z,24.60
2022-08-07T18:50:30.663Z,24.50
2022-08-07T18:52:56.518Z,24.30
2022-08-07T18:55:42.723Z,24.10
2022-08-07T18:59:02.995Z,23.90
2022-08-07T19:02:32.725Z,23.70
2022-08-07T19:04:56.167Z,23.50
2022-08-07T19:07:35.776Z,23.30
2022-08-07T19:10:18.297Z,23.20
2022-08-07T19:12:59.577Z,23.00
2022-08-07T19:16:05.779Z,22.90
2022-08-07T19:18:46.338Z,22.70
2022-08-07T19:21:44.336Z,22.60
2022-08-07T19:24:31.063Z,22.50
2022-08-07T19:28:29.493Z,22.30
2022-08-07T19:30:57.841Z,22.20
2022-08-07T19:32:48.110Z,22.00
2022-08-07T19:35:22.308Z,21.90
2022-08-07T19:37:58.365Z,21.70
2022-08-07T19:40:31.280Z,21.60
2022-08-07T19:43:08.395Z,21.50
2022-08-07T19:46:08.123Z,21.40
2022-08-07T19:48:44.064Z,21.30
2022-08-07T19:51:19.626Z,21.20
2022-08-07T19:54:30.987Z,21.10
2022-08-07T19:57:52.329Z,21.10
2022-08-07T19:59:42.216Z,20.90
2022-08-07T20:02:19.482Z,20.80
2022-08-07T20:04:52.002Z,20.70
2022-08-07T20:07:47.545Z,20.60
2022-08-07T20:10:36.211Z,20.60
2022-08-07T20:13:23.663Z,20.50
2022-08-07T20:15:57.744Z,20.40
2022-08-07T20:18:33.396Z,20.30
2022-08-07T20:21:14.432Z,20.30
2022-08-07T20:23:54.271Z,20.20
2022-08-07T20:26:32.196Z,20.10
2022-08-07T20:29:10.370Z,20.00
2022-08-07T20:31:48.853Z,20.00
2022-08-07T20:34:39.953Z,19.90
2022-08-07T20:37:11.053Z,19.80
2022-08-07T20:40:02.615Z,19.70
2022-08-07T20:42:35.438Z,19.70
2022-08-07T20:45:32.651Z,19.70
2022-08-07T20:47:58.621Z,19.60
2022-08-07T20:50:29.207Z,19.50
2022-08-07T20:52:59.321Z,19.50
2022-08-07T20:55:28.246Z,19.40
2022-08-07T20:58:09.700Z,19.40
2022-08-07T21:00:56.101Z,19.30
2022-08-07T21:03:26.371Z,19.20
2022-08-07T21:06:00.809Z,19.20
2022-08-07T21:08:44.288Z,19.10
2022-08-07T21:11:18.899Z,19.00
2022-08-07T21:14:29.556Z,18.90
2022-08-07T21:17:06.430Z,18.90
2022-08-07T21:20:04.460Z,18.80
2022-08-07T21:22:33.411Z,18.70
2022-08-07T21:25:12.113Z,18.70
2022-08-07T21:28:02.129Z,18.60
2022-08-07T21:30:44.382Z,18.60
2022-08-07T21:33:20.393Z,18.50
2022-08-07T21:36:06.547Z,18.40
2022-08-07T21:38:54.924Z,18.40
2022-08-07T21:41:38.326Z,18.40
2022-08-07T21:44:29.841Z,18.30
2022-08-07T21:47:05.611Z,18.30
2022-08-07T21:50:01.402Z,18.30
2022-08-07T21:52:43.671Z,18.20
2022-08-07T21:55:27.882Z,18.20
2022-08-07T21:58:07.486Z,18.10
2022-08-07T22:00:38.031Z,18.10
2022-08-07T22:03:17.373Z,18.00
2022-08-07T22:06:02.763Z,18.00
2022-08-07T22:08:38.740Z,17.90
2022-08-07T22:11:08.502Z,17.90
2022-08-07T22:13:52.648Z,17.90
2022-08-07T22:16:39.248Z,17.80
2022-08-07T22:19:23.700Z,17.80
2022-08-07T22:22:18.100Z,17.70
2022-08-07T22:25:05.758Z,17.70
2022-08-07T22:28:15.129Z,17.60
2022-08-07T22:30:37.408Z,17.60
2022-08-07T22:33:09.286Z,17.50
2022-08-07T22:35:44.808Z,17.50
2022-08-07T22:38:26.594Z,17.40
2022-08-07T22:40:59.817Z,17.40
2022-08-07T22:43:34.230Z,17.30
2022-08-07T22:47:02.851Z,17.30
2022-08-07T22:49:57.145Z,17.20
2022-08-07T22:52:45.900Z,17.10
2022-08-07T22:55:31.805Z,17.10
2022-08-07T22:58:28.135Z,17.10
2022-08-07T23:01:11.914Z,17.00
2022-08-07T23:04:00.182Z,17.00
2022-08-07T23:06:51.377Z,16.90
2022-08-07T23:10:05.452Z,16.90
2022-08-07T23:12:53.849Z,16.90
2022-08-07T23:16:06.646Z,16.80
2022-08-07T23:18:32.046Z,16.80
2022-08-07T23:21:16.251Z,16.80
2022-08-07T23:24:38.691Z,16.70
2022-08-07T23:28:21.075Z,16.70
2022-08-07T23:30:45.783Z,16.70
2022-08-07T23:34:20.818Z,16.60
2022-08-07T23:37:18.661Z,16.60
2022-08-07T23:39:55.603Z,16.50
2022-08-07T23:42:31.750Z,16.50
2022-08-07T23:45:33.466Z,16.50
2022-08-07T23:48:29.424Z,16.40
2022-08-07T23:51:03.401Z,16.40
2022-08-07T23:53:57.310Z,16.40
2022-08-07T23:56:31.160Z,16.30
